createdAt,value
2019-05-10T00:00:17.858Z,10.03
2019-05-10T00:03:02.692Z,10.01
2019-05-10T00:05:48.146Z,9.95
2019-05-10T00:08:33.190Z,9.94
2019-05-10T00:11:07.303Z,9.93
2019-05-10T00:13:43.806Z,9.93
2019-05-10T00:16:11.437Z,9.92
2019-05-10T00:18:37.559Z,9.87
2019-05-10T00:21:04.090Z,9.82
2019-05-10T00:23:30.264Z,9.81
2019-05-10T00:25:56.489Z,9.80
2019-05-10T00:28:22.728Z,9.79
2019-05-10T00:30:48.996Z,9.81
2019-05-10T00:33:15.190Z,9.82
2019-05-10T00:35:42.397Z,9.82
2019-05-10T00:38:08.576Z,9.83
2019-05-10T00:40:34.831Z,9.79
2019-05-10T00:43:00.998Z,9.80
2019-05-10T00:45:27.235Z,9.76
2019-05-10T00:47:53.424Z,9.75
2019-05-10T00:50:19.677Z,9.74
2019-05-10T00:52:45.773Z,9.72
2019-05-10T00:55:18.980Z,9.70
2019-05-10T00:57:40.279Z,9.71
2019-05-10T01:00:07.093Z,9.70
2019-05-10T01:02:33.358Z,9.71
2019-05-10T01:04:59.521Z,9.66
2019-05-10T01:07:25.779Z,9.67
2019-05-10T01:09:52.058Z,9.67
2019-05-10T01:12:18.323Z,9.69
2019-05-10T01:14:44.498Z,9.69
2019-05-10T01:17:10.697Z,9.66
2019-05-10T01:19:37.028Z,9.66
2019-05-10T01:22:03.298Z,9.66
2019-05-10T01:24:29.504Z,9.68
2019-05-10T01:26:55.621Z,9.71
2019-05-10T01:29:21.837Z,9.70
2019-05-10T01:31:47.935Z,9.71
2019-05-10T01:34:14.299Z,9.71
2019-05-10T01:36:40.404Z,9.72
2019-05-10T01:39:06.568Z,9.72
2019-05-10T01:41:32.735Z,9.72
2019-05-10T01:43:58.880Z,9.72
2019-05-10T01:46:25.009Z,9.71
2019-05-10T01:48:51.207Z,9.73
2019-05-10T01:51:17.376Z,9.73
2019-05-10T01:53:43.723Z,9.74
2019-05-10T01:56:09.938Z,9.68
2019-05-10T01:58:36.100Z,9.66
2019-05-10T02:01:04.962Z,9.65
2019-05-10T02:03:31.086Z,9.61
2019-05-10T02:05:57.420Z,9.60
2019-05-10T02:08:23.691Z,9.59
2019-05-10T02:10:51.084Z,9.59
2019-05-10T02:13:17.383Z,9.58
2019-05-10T02:15:43.554Z,9.56
2019-05-10T02:18:09.887Z,9.58
2019-05-10T02:20:36.063Z,9.58
2019-05-10T02:23:02.403Z,9.55
2019-05-10T02:25:28.603Z,9.53
2019-05-10T02:27:54.726Z,9.56
2019-05-10T02:30:21.167Z,9.57
2019-05-10T02:32:47.313Z,9.60
2019-05-10T02:35:15.739Z,9.57
2019-05-10T02:37:42.018Z,9.55
2019-05-10T02:40:08.469Z,9.50
2019-05-10T02:42:34.783Z,9.50
2019-05-10T02:45:01.166Z,9.50
2019-05-10T02:47:27.369Z,9.50
2019-05-10T02:49:53.481Z,9.54
2019-05-10T02:52:19.746Z,9.54
2019-05-10T02:54:45.884Z,9.56
2019-05-10T02:57:12.636Z,9.57
2019-05-10T02:59:40.114Z,9.57
2019-05-10T03:02:06.404Z,9.55
2019-05-10T03:04:34.869Z,9.53
2019-05-10T03:07:02.224Z,9.52
2019-05-10T03:09:32.196Z,9.52
2019-05-10T03:12:02.531Z,9.56
2019-05-10T03:14:32.623Z,9.56
2019-05-10T03:17:02.466Z,9.53
2019-05-10T03:19:30.231Z,9.49
2019-05-10T03:22:04.782Z,9.48
2019-05-10T03:24:32.188Z,9.46
2019-05-10T03:26:58.932Z,9.47
2019-05-10T03:29:25.478Z,9.48
2019-05-10T03:31:52.084Z,9.48
2019-05-10T03:34:18.203Z,9.48
2019-05-10T03:36:44.426Z,9.49
2019-05-10T03:39:10.534Z,9.49
2019-05-10T03:41:36.946Z,9.47
2019-05-10T03:44:03.574Z,9.46
2019-05-10T03:46:29.790Z,9.46
2019-05-10T03:48:56.021Z,9.46
2019-05-10T03:51:22.131Z,9.46
2019-05-10T03:53:48.367Z,9.44
2019-05-10T03:56:14.477Z,9.41
2019-05-10T03:58:40.677Z,9.38
2019-05-10T04:01:06.782Z,9.40
2019-05-10T04:03:32.995Z,9.38
2019-05-10T04:05:59.317Z,9.33
2019-05-10T04:08:25.590Z,9.30
2019-05-10T04:10:51.968Z,9.37
2019-05-10T04:13:18.230Z,9.43
2019-05-10T04:15:45.742Z,9.47
2019-05-10T04:18:11.902Z,9.56
2019-05-10T04:20:38.048Z,9.64
2019-05-10T04:23:04.206Z,9.69
2019-05-10T04:25:30.361Z,9.71
2019-05-10T04:27:56.538Z,9.72
2019-05-10T04:30:22.823Z,9.75
2019-05-10T04:32:49.047Z,9.77
2019-05-10T04:35:15.162Z,9.74
2019-05-10T04:37:41.375Z,9.71
2019-05-10T04:40:08.704Z,9.69
2019-05-10T04:42:34.905Z,9.68
2019-05-10T04:45:01.413Z,9.66
2019-05-10T04:47:27.633Z,9.62
2019-05-10T04:49:53.810Z,9.64
2019-05-10T04:52:21.091Z,9.65
2019-05-10T04:54:48.438Z,9.62
2019-05-10T04:57:14.589Z,9.60
2019-05-10T04:59:40.752Z,9.58
2019-05-10T05:02:06.919Z,9.56
2019-05-10T05:04:33.113Z,9.57
2019-05-10T05:06:59.398Z,9.60
2019-05-10T05:09:26.597Z,9.60
2019-05-10T05:11:52.777Z,9.59
2019-05-10T05:14:19.141Z,9.63
2019-05-10T05:16:45.404Z,9.66
2019-05-10T05:19:11.662Z,9.68
2019-05-10T05:21:37.884Z,9.71
2019-05-10T05:24:03.981Z,9.71
2019-05-10T05:26:30.184Z,9.72
2019-05-10T05:28:56.288Z,9.72
2019-05-10T05:31:22.546Z,9.73
2019-05-10T05:33:48.801Z,9.73
2019-05-10T05:36:15.118Z,9.77
2019-05-10T05:38:47.127Z,9.75
2019-05-10T05:41:09.438Z,9.75
2019-05-10T05:43:35.646Z,9.70
2019-05-10T05:46:01.854Z,9.71
2019-05-10T05:48:39.783Z,9.71
2019-05-10T05:50:56.368Z,9.71
2019-05-10T05:53:22.811Z,9.71
2019-05-10T05:55:49.025Z,9.73
2019-05-10T05:58:25.600Z,9.77
2019-05-10T06:00:46.808Z,9.80
2019-05-10T06:03:19.309Z,9.82
2019-05-10T06:05:41.252Z,9.83
2019-05-10T06:08:21.283Z,9.78
2019-05-10T06:10:35.677Z,9.78
2019-05-10T06:13:01.787Z,9.76
2019-05-10T06:15:29.197Z,9.77
2019-05-10T06:17:57.589Z,9.85
2019-05-10T06:20:24.290Z,9.91
2019-05-10T06:23:05.545Z,9.96
2019-05-10T06:25:18.739Z,10.04
2019-05-10T06:27:44.995Z,10.13
2019-05-10T06:30:11.377Z,10.19
2019-05-10T06:32:37.534Z,10.28
2019-05-10T06:35:06.667Z,10.48
2019-05-10T06:37:33.141Z,10.61
2019-05-10T06:39:59.304Z,10.71
2019-05-10T06:42:28.733Z,10.82
2019-05-10T06:44:53.522Z,10.84
2019-05-10T06:47:21.888Z,10.83
2019-05-10T06:49:52.148Z,10.90
2019-05-10T06:52:16.529Z,10.94
2019-05-10T06:54:42.831Z,11.05
2019-05-10T06:57:11.290Z,11.05
2019-05-10T06:59:37.078Z,11.03
2019-05-10T07:02:03.341Z,10.97
2019-05-10T07:04:34.515Z,10.87
2019-05-10T07:06:57.579Z,10.81
2019-05-10T07:09:23.785Z,10.81
2019-05-10T07:11:50.004Z,10.86
2019-05-10T07:14:16.243Z,10.88
2019-05-10T07:16:42.491Z,10.86
2019-05-10T07:19:08.615Z,10.95
2019-05-10T07:21:38.901Z,11.18
2019-05-10T07:24:03.005Z,11.32
2019-05-10T07:26:29.353Z,11.40
2019-05-10T07:28:57.627Z,11.40
2019-05-10T07:31:24.006Z,11.52
2019-05-10T07:33:50.313Z,11.58
2019-05-10T07:36:20.916Z,11.63
2019-05-10T07:38:44.742Z,11.70
2019-05-10T07:41:11.048Z,11.72
2019-05-10T07:43:37.695Z,11.55
2019-05-10T07:46:08.943Z,11.48
2019-05-10T07:48:32.106Z,11.47
2019-05-10T07:50:58.285Z,11.41
2019-05-10T07:53:25.280Z,11.33
2019-05-10T07:55:51.652Z,11.36
2019-05-10T07:58:17.843Z,11.58
2019-05-10T08:00:46.491Z,11.89
2019-05-10T08:03:16.835Z,12.07
2019-05-10T08:05:40.334Z,12.03
2019-05-10T08:08:06.776Z,12.00
2019-05-10T08:10:33.159Z,11.95
2019-05-10T08:13:03.224Z,11.96
2019-05-10T08:15:30.516Z,11.95
2019-05-10T08:17:55.591Z,12.04
2019-05-10T08:20:41.032Z,12.17
2019-05-10T08:22:49.822Z,12.26
2019-05-10T08:25:15.927Z,12.37
2019-05-10T08:27:50.066Z,12.48
2019-05-10T08:30:22.620Z,12.49
2019-05-10T08:32:38.854Z,12.39
2019-05-10T08:35:16.365Z,12.22
2019-05-10T08:37:37.792Z,12.04
2019-05-10T08:40:04.108Z,11.99
2019-05-10T08:42:43.845Z,12.06
2019-05-10T08:45:05.474Z,12.09
2019-05-10T08:47:29.527Z,12.20
2019-05-10T08:50:10.550Z,12.53
2019-05-10T08:52:30.592Z,12.99
2019-05-10T08:54:54.935Z,13.19
2019-05-10T08:57:22.139Z,13.21
2019-05-10T08:59:54.484Z,13.09
2019-05-10T09:02:23.108Z,13.02
2019-05-10T09:04:50.200Z,13.04
2019-05-10T09:07:13.768Z,13.15
2019-05-10T09:09:45.788Z,12.96
2019-05-10T09:12:09.384Z,12.81
2019-05-10T09:14:36.230Z,12.83
2019-05-10T09:17:04.346Z,13.05
2019-05-10T09:19:37.350Z,13.43
2019-05-10T09:21:58.663Z,13.80
2019-05-10T09:24:24.942Z,14.04
2019-05-10T09:26:54.770Z,14.26
2019-05-10T09:29:19.240Z,14.55
2019-05-10T09:31:50.463Z,14.59
2019-05-10T09:34:13.470Z,14.51
2019-05-10T09:36:42.933Z,14.49
2019-05-10T09:39:09.187Z,14.44
2019-05-10T09:41:38.261Z,14.30
2019-05-10T09:44:04.250Z,13.92
2019-05-10T09:46:32.436Z,13.61
2019-05-10T09:49:04.812Z,13.60
2019-05-10T09:51:30.235Z,13.78
2019-05-10T09:53:54.806Z,13.88
2019-05-10T09:56:20.988Z,14.09
2019-05-10T09:58:48.337Z,14.21
2019-05-10T10:01:21.242Z,14.34
2019-05-10T10:03:44.866Z,14.29
2019-05-10T10:06:11.582Z,14.43
2019-05-10T10:08:38.641Z,14.54
2019-05-10T10:11:13.500Z,14.32
2019-05-10T10:13:40.864Z,14.54
2019-05-10T10:16:04.045Z,14.65
2019-05-10T10:18:31.164Z,14.75
2019-05-10T10:20:57.581Z,14.77
2019-05-10T10:23:29.912Z,14.61
2019-05-10T10:25:53.447Z,14.79
2019-05-10T10:28:22.558Z,15.03
2019-05-10T10:30:50.417Z,15.55
2019-05-10T10:33:22.479Z,15.80
2019-05-10T10:35:47.906Z,16.28
2019-05-10T10:38:13.449Z,16.44
2019-05-10T10:40:44.516Z,16.58
2019-05-10T10:43:07.925Z,16.52
2019-05-10T10:45:34.131Z,16.88
2019-05-10T10:48:02.561Z,16.99
2019-05-10T10:50:29.065Z,16.93
2019-05-10T10:52:57.507Z,17.20
2019-05-10T10:55:23.733Z,18.62
2019-05-10T10:57:49.957Z,20.71
2019-05-10T11:00:23.265Z,19.87
2019-05-10T11:02:51.870Z,19.69
2019-05-10T11:05:16.307Z,18.22
2019-05-10T11:07:47.303Z,17.38
2019-05-10T11:10:16.180Z,16.88
2019-05-10T11:12:41.261Z,16.54
2019-05-10T11:15:07.353Z,16.44
2019-05-10T11:17:33.610Z,16.26
2019-05-10T11:20:00.610Z,17.00
2019-05-10T11:22:27.453Z,17.44
2019-05-10T11:25:03.080Z,21.08
2019-05-10T11:27:22.562Z,21.93
2019-05-10T11:29:52.756Z,20.69
2019-05-10T11:32:17.183Z,19.73
2019-05-10T11:34:43.519Z,18.83
2019-05-10T11:37:09.774Z,18.51
2019-05-10T11:39:41.956Z,18.52
2019-05-10T11:42:07.157Z,18.93
2019-05-10T11:44:32.252Z,18.51
2019-05-10T11:46:58.510Z,17.75
2019-05-10T11:49:24.680Z,17.59
2019-05-10T11:51:54.859Z,18.82
2019-05-10T11:54:21.562Z,19.78
2019-05-10T11:56:47.990Z,19.22
2019-05-10T11:59:16.459Z,18.31
2019-05-10T12:01:42.300Z,17.59
2019-05-10T12:04:13.152Z,16.97
2019-05-10T12:06:41.287Z,16.60
2019-05-10T12:09:05.661Z,16.19
2019-05-10T12:11:33.929Z,15.92
2019-05-10T12:14:02.381Z,15.80
2019-05-10T12:16:28.003Z,15.59
2019-05-10T12:21:22.390Z,15.28
2019-05-10T12:23:51.940Z,15.22
2019-05-10T12:26:36.003Z,15.40
2019-05-10T12:27:13.979Z,15.20
2019-05-10T12:28:45.173Z,15.35
2019-05-10T12:31:15.093Z,15.66
2019-05-10T12:33:44.557Z,15.94
2019-05-10T12:36:13.090Z,16.02
2019-05-10T12:38:38.058Z,15.74
2019-05-10T12:41:05.510Z,15.47
2019-05-10T12:43:32.814Z,15.42
2019-05-10T12:45:59.006Z,15.75
2019-05-10T12:48:26.317Z,16.20
2019-05-10T12:50:57.942Z,17.16
2019-05-10T12:53:22.274Z,18.46
2019-05-10T12:55:48.541Z,19.99
2019-05-10T12:58:14.724Z,18.85
2019-05-10T13:00:40.913Z,17.94
2019-05-10T13:03:12.803Z,17.54
2019-05-10T13:05:51.091Z,17.28
2019-05-10T13:08:03.321Z,17.29
2019-05-10T13:10:29.660Z,16.99
2019-05-10T13:12:55.826Z,16.58
2019-05-10T13:15:24.638Z,16.14
2019-05-10T13:17:53.090Z,15.86
2019-05-10T13:20:19.743Z,15.75
2019-05-10T13:22:45.854Z,15.85
2019-05-10T13:25:12.475Z,15.67
2019-05-10T13:27:38.854Z,15.59
2019-05-10T13:30:06.850Z,15.49
2019-05-10T13:32:33.059Z,15.28
2019-05-10T13:34:59.297Z,15.20
2019-05-10T13:37:25.516Z,15.35
2019-05-10T13:39:51.744Z,15.44
2019-05-10T13:42:18.048Z,15.32
2019-05-10T13:44:44.601Z,15.21
2019-05-10T13:47:11.050Z,15.17
2019-05-10T13:49:37.351Z,14.90
2019-05-10T13:52:03.460Z,14.71
2019-05-10T13:54:31.221Z,14.65
2019-05-10T13:56:57.713Z,14.38
2019-05-10T13:59:24.193Z,14.27
2019-05-10T14:01:51.500Z,14.65
2019-05-10T14:04:17.966Z,15.06
2019-05-10T14:06:44.250Z,15.34
2019-05-10T14:09:10.659Z,15.43
2019-05-10T14:11:40.363Z,15.49
2019-05-10T14:14:05.104Z,15.62
2019-05-10T14:16:31.263Z,15.77
2019-05-10T14:18:57.405Z,16.09
2019-05-10T14:21:23.814Z,16.28
2019-05-10T14:23:49.966Z,16.31
2019-05-10T14:26:18.236Z,16.32
2019-05-10T14:28:47.385Z,16.17
2019-05-10T14:31:12.497Z,15.90
2019-05-10T14:33:38.736Z,15.69
2019-05-10T14:36:04.890Z,15.63
2019-05-10T14:38:31.088Z,15.70
2019-05-10T14:40:57.274Z,15.92
2019-05-10T14:43:23.527Z,16.00
2019-05-10T14:45:49.642Z,16.00
2019-05-10T14:48:15.865Z,16.04
2019-05-10T14:50:46.195Z,16.42
2019-05-10T14:53:10.269Z,16.81
2019-05-10T14:55:36.996Z,16.67
2019-05-10T14:58:03.531Z,16.44
2019-05-10T15:00:29.772Z,16.17
2019-05-10T15:02:56.693Z,16.00
2019-05-10T15:05:24.218Z,15.87
2019-05-10T15:07:51.224Z,15.73
2019-05-10T15:10:17.803Z,15.63
2019-05-10T15:12:43.980Z,15.50
2019-05-10T15:15:10.701Z,15.64
2019-05-10T15:17:36.813Z,16.35
2019-05-10T15:20:05.677Z,16.51
2019-05-10T15:22:31.792Z,16.52
2019-05-10T15:24:58.062Z,16.77
2019-05-10T15:27:24.202Z,16.80
2019-05-10T15:29:50.408Z,16.71
2019-05-10T15:32:16.522Z,16.61
2019-05-10T15:34:42.784Z,16.43
2019-05-10T15:37:10.575Z,16.27
2019-05-10T15:39:37.012Z,16.24
2019-05-10T15:42:03.383Z,16.24
2019-05-10T15:44:31.390Z,16.19
2019-05-10T15:46:57.748Z,16.02
2019-05-10T15:49:25.062Z,15.99
2019-05-10T15:51:56.850Z,15.99
2019-05-10T15:54:19.272Z,16.04
2019-05-10T15:56:45.541Z,16.05
2019-05-10T15:59:12.924Z,16.02
2019-05-10T16:01:39.913Z,15.92
2019-05-10T16:04:06.173Z,15.79
2019-05-10T16:06:37.558Z,15.62
2019-05-10T16:09:02.810Z,15.52
2019-05-10T16:11:29.812Z,15.42
2019-05-10T16:14:00.121Z,15.36
2019-05-10T16:16:24.363Z,15.31
2019-05-10T16:18:50.529Z,15.32
2019-05-10T16:21:16.903Z,15.33
2019-05-10T16:23:46.807Z,15.45
2019-05-10T16:26:11.808Z,15.59
2019-05-10T16:28:38.009Z,15.69
2019-05-10T16:31:04.388Z,15.70
2019-05-10T16:33:30.626Z,15.67
2019-05-10T16:35:56.874Z,15.65
2019-05-10T16:38:23.269Z,15.65
2019-05-10T16:40:58.348Z,15.56
2019-05-10T16:43:23.867Z,15.45
2019-05-10T16:45:46.488Z,15.33
2019-05-10T16:48:12.639Z,15.21
2019-05-10T16:50:38.843Z,15.05
2019-05-10T16:53:07.973Z,14.95
2019-05-10T16:55:35.679Z,14.83
2019-05-10T16:58:01.651Z,14.73
2019-05-10T17:00:28.124Z,14.57
2019-05-10T17:02:54.284Z,14.46
2019-05-10T17:05:20.552Z,14.34
2019-05-10T17:07:46.718Z,14.24
2019-05-10T17:10:13.223Z,14.17
2019-05-10T17:12:39.418Z,14.13
2019-05-10T17:15:05.773Z,14.12
2019-05-10T17:17:37.091Z,14.12
2019-05-10T17:20:00.701Z,14.13
2019-05-10T17:22:26.959Z,14.06
2019-05-10T17:24:56.763Z,14.03
2019-05-10T17:27:21.416Z,14.04
2019-05-10T17:29:49.826Z,14.04
2019-05-10T17:32:18.533Z,14.07
2019-05-10T17:34:44.057Z,14.09
2019-05-10T17:37:11.281Z,14.07
2019-05-10T17:39:37.479Z,14.02
2019-05-10T17:42:05.049Z,14.02
2019-05-10T17:44:31.418Z,14.03
2019-05-10T17:46:57.634Z,14.04
2019-05-10T17:49:23.975Z,14.02
2019-05-10T17:51:50.345Z,13.97
2019-05-10T17:54:17.636Z,13.89
2019-05-10T17:56:44.042Z,13.79
2019-05-10T17:59:12.030Z,13.73
2019-05-10T18:01:38.711Z,13.63
2019-05-10T18:04:05.005Z,13.55
2019-05-10T18:06:31.176Z,13.46
2019-05-10T18:08:57.476Z,13.37
2019-05-10T18:11:23.877Z,13.27
2019-05-10T18:13:50.163Z,13.16
2019-05-10T18:16:17.397Z,13.01
2019-05-10T18:18:47.192Z,12.86
2019-05-10T18:21:15.739Z,12.74
2019-05-10T18:23:40.041Z,12.60
2019-05-10T18:26:06.327Z,12.45
2019-05-10T18:28:32.537Z,12.35
2019-05-10T18:30:58.715Z,12.25
2019-05-10T18:33:26.154Z,12.18
2019-05-10T18:35:54.504Z,12.11
2019-05-10T18:38:20.423Z,11.98
2019-05-10T18:40:46.695Z,11.79
2019-05-10T18:43:13.025Z,11.57
2019-05-10T18:45:39.210Z,11.34
2019-05-10T18:48:05.479Z,11.19
2019-05-10T18:50:31.628Z,11.05
2019-05-10T18:52:57.866Z,10.96
2019-05-10T18:55:24.252Z,10.92
2019-05-10T18:57:52.588Z,10.89
2019-05-10T19:00:23.225Z,10.80
2019-05-10T19:02:49.654Z,10.70
2019-05-10T19:05:15.928Z,10.64
2019-05-10T19:07:42.333Z,10.72
2019-05-10T19:10:08.958Z,10.74
2019-05-10T19:12:35.894Z,10.68
2019-05-10T19:15:08.999Z,10.65
2019-05-10T19:17:33.514Z,10.57
2019-05-10T19:19:59.816Z,10.49
2019-05-10T19:22:27.095Z,10.41
2019-05-10T19:24:56.697Z,10.35
2019-05-10T19:27:24.881Z,10.32
2019-05-10T19:29:50.531Z,10.27
2019-05-10T19:32:18.030Z,10.26
2019-05-10T19:34:48.281Z,10.28
2019-05-10T19:37:26.853Z,10.28
2019-05-10T19:39:40.996Z,10.34
2019-05-10T19:42:07.313Z,10.43
2019-05-10T19:44:34.803Z,10.49
2019-05-10T19:47:01.952Z,10.55
2019-05-10T19:49:28.143Z,10.65
2019-05-10T19:51:54.496Z,10.71
2019-05-10T19:54:21.321Z,10.80
2019-05-10T19:56:47.776Z,10.84
2019-05-10T19:59:13.884Z,10.85
2019-05-10T20:01:40.222Z,10.84
2019-05-10T20:04:09.352Z,10.86
2019-05-10T20:06:34.429Z,10.87
2019-05-10T20:09:00.619Z,10.88
2019-05-10T20:11:27.043Z,10.86
2019-05-10T20:13:53.199Z,10.85
2019-05-10T20:16:19.431Z,10.90
2019-05-10T20:18:45.728Z,10.78
2019-05-10T20:21:11.978Z,10.56
2019-05-10T20:23:38.221Z,10.26
2019-05-10T20:26:04.385Z,10.09
2019-05-10T20:28:30.608Z,9.97
2019-05-10T20:30:56.720Z,9.87
2019-05-10T20:33:22.937Z,9.83
2019-05-10T20:35:49.047Z,9.80
2019-05-10T20:38:15.377Z,9.79
2019-05-10T20:40:41.532Z,9.74
2019-05-10T20:43:07.748Z,9.75
2019-05-10T20:45:34.096Z,9.75
2019-05-10T20:48:00.318Z,9.82
2019-05-10T20:50:26.431Z,9.83
2019-05-10T20:52:55.875Z,9.73
2019-05-10T20:55:22.002Z,9.61
2019-05-10T20:57:48.224Z,9.57
2019-05-10T21:00:14.651Z,9.50
2019-05-10T21:02:40.882Z,9.46
2019-05-10T21:05:07.815Z,9.36
2019-05-10T21:07:34.043Z,9.30
2019-05-10T21:10:00.283Z,9.32
2019-05-10T21:12:26.603Z,9.31
2019-05-10T21:14:52.743Z,9.29
2019-05-10T21:17:18.983Z,9.28
2019-05-10T21:19:45.160Z,9.21
2019-05-10T21:22:11.452Z,9.15
2019-05-10T21:24:37.665Z,9.12
2019-05-10T21:27:03.955Z,9.06
2019-05-10T21:29:30.153Z,9.00
2019-05-10T21:31:56.327Z,8.95
2019-05-10T21:34:22.486Z,8.89
2019-05-10T21:36:48.715Z,8.79
2019-05-10T21:39:15.867Z,8.72
2019-05-10T21:41:42.038Z,8.67
2019-05-10T21:44:08.210Z,8.61
2019-05-10T21:46:35.285Z,8.55
2019-05-10T21:49:01.390Z,8.45
2019-05-10T21:51:27.624Z,8.40
2019-05-10T21:53:53.747Z,8.36
2019-05-10T21:56:19.957Z,8.29
2019-05-10T21:58:46.130Z,8.26
2019-05-10T22:01:12.476Z,8.21
2019-05-10T22:03:38.830Z,8.18
2019-05-10T22:06:05.000Z,8.12
2019-05-10T22:08:31.266Z,8.10
2019-05-10T22:10:57.642Z,8.08
2019-05-10T22:13:23.987Z,8.05
2019-05-10T22:15:50.296Z,8.04
2019-05-10T22:18:16.450Z,7.98
2019-05-10T22:20:42.630Z,7.98
2019-05-10T22:23:08.799Z,8.01
2019-05-10T22:25:35.025Z,8.09
2019-05-10T22:28:01.252Z,8.13
2019-05-10T22:30:27.575Z,8.15
2019-05-10T22:32:53.887Z,8.13
2019-05-10T22:35:20.012Z,8.12
2019-05-10T22:37:46.235Z,8.09
2019-05-10T22:40:12.685Z,8.08
2019-05-10T22:42:38.944Z,8.04
2019-05-10T22:45:05.357Z,8.00
2019-05-10T22:47:31.465Z,7.96
2019-05-10T22:49:57.776Z,7.93
2019-05-10T22:52:24.034Z,7.90
2019-05-10T22:54:50.271Z,7.86
2019-05-10T22:57:16.443Z,7.82
2019-05-10T22:59:42.700Z,7.79
2019-05-10T23:02:08.971Z,7.74
2019-05-10T23:04:35.181Z,7.74
2019-05-10T23:07:01.292Z,7.72
2019-05-10T23:09:27.508Z,7.72
2019-05-10T23:11:53.672Z,7.73
2019-05-10T23:14:19.954Z,7.80
2019-05-10T23:16:46.234Z,7.84
2019-05-10T23:19:12.491Z,7.89
2019-05-10T23:21:38.711Z,7.93
2019-05-10T23:24:07.512Z,7.98
2019-05-10T23:26:34.719Z,8.02
2019-05-10T23:29:00.818Z,8.04
2019-05-10T23:31:27.013Z,8.04
2019-05-10T23:33:53.114Z,8.05
2019-05-10T23:36:19.353Z,8.06
2019-05-10T23:38:45.851Z,8.05
2019-05-10T23:41:12.089Z,8.05
2019-05-10T23:43:38.195Z,8.02
2019-05-10T23:46:05.404Z,7.99
2019-05-10T23:48:31.549Z,7.96
2019-05-10T23:50:57.799Z,7.95
2019-05-10T23:53:24.099Z,7.96
2019-05-10T23:55:50.375Z,7.94
2019-05-10T23:58:16.678Z,7.94
